sensor_id;sensor_type;location;lat;lon;timestamp;P1;durP1;ratioP1;P2;durP2;ratioP2
54935;SDS011;40838;50.676;7.838;2023-04-24T00:00:47;0.70;;;0.50;;
54935;SDS011;40838;50.676;7.838;2023-04-24T00:03:14;1.67;;;0.68;;
54935;SDS011;40838;50.676;7.838;2023-04-24T00:05:42;1.73;;;0.50;;
54935;SDS011;40838;50.676;7.838;2023-04-24T00:08:09;2.85;;;0.80;;
54935;SDS011;40838;50.676;7.838;2023-04-24T00:10:35;2.58;;;0.80;;
54935;SDS011;40838;50.676;7.838;2023-04-24T00:13:02;2.83;;;0.60;;
54935;SDS011;40838;50.676;7.838;2023-04-24T00:15:29;0.85;;;0.55;;
54935;SDS011;40838;50.676;7.838;2023-04-24T00:17:56;1.52;;;0.60;;
54935;SDS011;40838;50.676;7.838;2023-04-24T00:20:23;0.90;;;0.70;;
54935;SDS011;40838;50.676;7.838;2023-04-24T00:22:51;1.33;;;0.60;;
54935;SDS011;40838;50.676;7.838;2023-04-24T00:25:18;2.00;;;0.80;;
54935;SDS011;40838;50.676;7.838;2023-04-24T00:27:45;0.75;;;0.75;;
54935;SDS011;40838;50.676;7.838;2023-04-24T00:30:12;1.73;;;0.52;;
54935;SDS011;40838;50.676;7.838;2023-04-24T00:32:39;0.98;;;0.60;;
54935;SDS011;40838;50.676;7.838;2023-04-24T00:35:06;2.28;;;0.70;;
54935;SDS011;40838;50.676;7.838;2023-04-24T00:37:33;4.50;;;0.90;;
54935;SDS011;40838;50.676;7.838;2023-04-24T00:40:02;2.35;;;0.80;;
54935;SDS011;40838;50.676;7.838;2023-04-24T00:42:29;1.13;;;0.73;;
54935;SDS011;40838;50.676;7.838;2023-04-24T00:44:57;3.97;;;1.08;;
54935;SDS011;40838;50.676;7.838;2023-04-24T00:47:24;2.70;;;0.93;;
54935;SDS011;40838;50.676;7.838;2023-04-24T00:49:51;1.25;;;0.95;;
54935;SDS011;40838;50.676;7.838;2023-04-24T00:52:18;2.05;;;1.10;;
54935;SDS011;40838;50.676;7.838;2023-04-24T00:54:45;0.90;;;0.70;;
54935;SDS011;40838;50.676;7.838;2023-04-24T00:57:14;3.22;;;0.95;;
54935;SDS011;40838;50.676;7.838;2023-04-24T00:59:41;3.40;;;1.30;;
54935;SDS011;40838;50.676;7.838;2023-04-24T01:02:08;1.15;;;1.05;;
54935;SDS011;40838;50.676;7.838;2023-04-24T01:04:36;3.30;;;1.40;;
54935;SDS011;40838;50.676;7.838;2023-04-24T01:07:03;1.88;;;1.08;;
54935;SDS011;40838;50.676;7.838;2023-04-24T01:09:35;2.47;;;1.50;;
54935;SDS011;40838;50.676;7.838;2023-04-24T01:12:02;1.48;;;1.08;;
54935;SDS011;40838;50.676;7.838;2023-04-24T01:14:31;3.88;;;1.30;;
54935;SDS011;40838;50.676;7.838;2023-04-24T01:16:57;0.57;;;0.57;;
54935;SDS011;40838;50.676;7.838;2023-04-24T01:19:26;0.68;;;0.55;;
54935;SDS011;40838;50.676;7.838;2023-04-24T01:21:53;0.70;;;0.70;;
54935;SDS011;40838;50.676;7.838;2023-04-24T01:24:25;1.13;;;0.60;;
54935;SDS011;40838;50.676;7.838;2023-04-24T01:26:52;0.65;;;0.65;;
54935;SDS011;40838;50.676;7.838;2023-04-24T01:29:20;0.47;;;0.47;;
54935;SDS011;40838;50.676;7.838;2023-04-24T01:31:47;1.42;;;0.57;;
54935;SDS011;40838;50.676;7.838;2023-04-24T01:34:14;0.65;;;0.60;;
54935;SDS011;40838;50.676;7.838;2023-04-24T01:36:42;1.48;;;0.60;;
54935;SDS011;40838;50.676;7.838;2023-04-24T01:39:11;0.70;;;0.50;;
54935;SDS011;40838;50.676;7.838;2023-04-24T01:41:40;1.17;;;0.60;;
54935;SDS011;40838;50.676;7.838;2023-04-24T01:44:07;1.60;;;0.73;;
54935;SDS011;40838;50.676;7.838;2023-04-24T01:46:34;3.40;;;0.65;;
54935;SDS011;40838;50.676;7.838;2023-04-24T01:49:03;1.08;;;0.50;;
54935;SDS011;40838;50.676;7.838;2023-04-24T01:51:30;0.68;;;0.57;;
54935;SDS011;40838;50.676;7.838;2023-04-24T01:53:57;0.55;;;0.50;;
54935;SDS011;40838;50.676;7.838;2023-04-24T01:56:24;1.83;;;0.70;;
54935;SDS011;40838;50.676;7.838;2023-04-24T01:58:56;0.73;;;0.60;;
54935;SDS011;40838;50.676;7.838;2023-04-24T02:01:24;0.63;;;0.60;;
54935;SDS011;40838;50.676;7.838;2023-04-24T02:03:51;2.08;;;0.57;;
54935;SDS011;40838;50.676;7.838;2023-04-24T02:06:18;1.23;;;0.70;;
54935;SDS011;40838;50.676;7.838;2023-04-24T02:08:45;0.80;;;0.80;;
54935;SDS011;40838;50.676;7.838;2023-04-24T02:11:12;1.90;;;0.88;;
54935;SDS011;40838;50.676;7.838;2023-04-24T02:13:38;2.65;;;0.68;;
54935;SDS011;40838;50.676;7.838;2023-04-24T02:16:06;0.40;;;0.40;;
54935;SDS011;40838;50.676;7.838;2023-04-24T02:18:33;0.68;;;0.68;;
54935;SDS011;40838;50.676;7.838;2023-04-24T02:21:00;1.38;;;0.80;;
54935;SDS011;40838;50.676;7.838;2023-04-24T02:23:27;0.40;;;0.40;;
54935;SDS011;40838;50.676;7.838;2023-04-24T02:25:54;1.38;;;0.65;;
54935;SDS011;40838;50.676;7.838;2023-04-24T02:28:20;1.15;;;0.95;;
54935;SDS011;40838;50.676;7.838;2023-04-24T02:30:49;2.85;;;0.80;;
54935;SDS011;40838;50.676;7.838;2023-04-24T02:33:18;0.68;;;0.68;;
54935;SDS011;40838;50.676;7.838;2023-04-24T02:35:45;0.70;;;0.70;;
54935;SDS011;40838;50.676;7.838;2023-04-24T02:38:12;1.73;;;0.70;;
54935;SDS011;40838;50.676;7.838;2023-04-24T02:40:38;1.52;;;1.25;;
54935;SDS011;40838;50.676;7.838;2023-04-24T02:43:05;3.72;;;1.02;;
54935;SDS011;40838;50.676;7.838;2023-04-24T02:45:32;0.80;;;0.80;;
54935;SDS011;40838;50.676;7.838;2023-04-24T02:48:00;2.88;;;1.30;;
54935;SDS011;40838;50.676;7.838;2023-04-24T02:50:28;0.90;;;0.90;;
54935;SDS011;40838;50.676;7.838;2023-04-24T02:52:55;1.35;;;0.90;;
54935;SDS011;40838;50.676;7.838;2023-04-24T02:55:21;2.58;;;1.10;;
54935;SDS011;40838;50.676;7.838;2023-04-24T02:57:48;2.47;;;1.10;;
54935;SDS011;40838;50.676;7.838;2023-04-24T03:00:15;3.53;;;1.15;;
54935;SDS011;40838;50.676;7.838;2023-04-24T03:02:42;2.15;;;1.33;;
54935;SDS011;40838;50.676;7.838;2023-04-24T03:05:09;2.45;;;1.80;;
54935;SDS011;40838;50.676;7.838;2023-04-24T03:07:38;1.65;;;1.05;;
54935;SDS011;40838;50.676;7.838;2023-04-24T03:10:06;1.63;;;1.40;;
54935;SDS011;40838;50.676;7.838;2023-04-24T03:12:33;2.58;;;1.20;;
54935;SDS011;40838;50.676;7.838;2023-04-24T03:15:00;3.75;;;1.48;;
54935;SDS011;40838;50.676;7.838;2023-04-24T03:17:27;3.05;;;1.50;;
54935;SDS011;40838;50.676;7.838;2023-04-24T03:19:54;1.67;;;1.20;;
54935;SDS011;40838;50.676;7.838;2023-04-24T03:22:21;3.85;;;1.52;;
54935;SDS011;40838;50.676;7.838;2023-04-24T03:24:50;1.90;;;1.55;;
54935;SDS011;40838;50.676;7.838;2023-04-24T03:27:17;2.00;;;1.80;;
54935;SDS011;40838;50.676;7.838;2023-04-24T03:30:08;2.72;;;2.28;;
54935;SDS011;40838;50.676;7.838;2023-04-24T03:32:47;2.67;;;2.05;;
54935;SDS011;40838;50.676;7.838;2023-04-24T03:35:19;2.63;;;1.77;;
54935;SDS011;40838;50.676;7.838;2023-04-24T03:37:47;2.65;;;2.30;;
54935;SDS011;40838;50.676;7.838;2023-04-24T03:40:34;3.35;;;2.00;;
54935;SDS011;40838;50.676;7.838;2023-04-24T03:43:05;4.40;;;2.30;;
54935;SDS011;40838;50.676;7.838;2023-04-24T03:45:32;2.58;;;2.35;;
54935;SDS011;40838;50.676;7.838;2023-04-24T03:47:59;5.38;;;3.22;;
54935;SDS011;40838;50.676;7.838;2023-04-24T03:50:25;4.47;;;3.38;;
54935;SDS011;40838;50.676;7.838;2023-04-24T03:52:54;6.07;;;3.05;;
54935;SDS011;40838;50.676;7.838;2023-04-24T03:55:34;4.05;;;3.15;;
54935;SDS011;40838;50.676;7.838;2023-04-24T03:58:01;4.53;;;2.80;;
54935;SDS011;40838;50.676;7.838;2023-04-24T04:00:28;4.13;;;2.95;;
54935;SDS011;40838;50.676;7.838;2023-04-24T04:03:18;2.55;;;2.35;;
54935;SDS011;40838;50.676;7.838;2023-04-24T04:05:45;5.30;;;3.25;;
54935;SDS011;40838;50.676;7.838;2023-04-24T04:08:12;5.32;;;3.50;;
54935;SDS011;40838;50.676;7.838;2023-04-24T04:10:40;4.20;;;3.17;;
54935;SDS011;40838;50.676;7.838;2023-04-24T04:13:07;6.57;;;3.63;;
54935;SDS011;40838;50.676;7.838;2023-04-24T04:15:35;5.20;;;3.83;;
54935;SDS011;40838;50.676;7.838;2023-04-24T04:18:02;6.72;;;4.68;;
54935;SDS011;40838;50.676;7.838;2023-04-24T04:20:29;5.22;;;3.95;;
54935;SDS011;40838;50.676;7.838;2023-04-24T04:22:56;5.45;;;4.30;;
54935;SDS011;40838;50.676;7.838;2023-04-24T04:25:34;7.88;;;4.88;;
54935;SDS011;40838;50.676;7.838;2023-04-24T04:28:03;7.97;;;4.75;;
54935;SDS011;40838;50.676;7.838;2023-04-24T04:30:30;6.78;;;4.60;;
54935;SDS011;40838;50.676;7.838;2023-04-24T04:33:01;7.35;;;4.68;;
54935;SDS011;40838;50.676;7.838;2023-04-24T04:35:29;5.97;;;4.60;;
54935;SDS011;40838;50.676;7.838;2023-04-24T04:37:57;6.57;;;4.57;;
54935;SDS011;40838;50.676;7.838;2023-04-24T04:40:44;9.40;;;4.85;;
54935;SDS011;40838;50.676;7.838;2023-04-24T04:43:14;5.35;;;3.95;;
54935;SDS011;40838;50.676;7.838;2023-04-24T04:45:50;8.25;;;4.90;;
54935;SDS011;40838;50.676;7.838;2023-04-24T04:48:32;7.85;;;4.75;;
54935;SDS011;40838;50.676;7.838;2023-04-24T04:51:01;6.07;;;4.10;;
54935;SDS011;40838;50.676;7.838;2023-04-24T04:53:28;5.88;;;4.32;;
54935;SDS011;40838;50.676;7.838;2023-04-24T04:55:57;6.38;;;4.22;;
54935;SDS011;40838;50.676;7.838;2023-04-24T04:58:37;7.80;;;4.72;;
54935;SDS011;40838;50.676;7.838;2023-04-24T05:01:06;8.02;;;4.82;;
54935;SDS011;40838;50.676;7.838;2023-04-24T05:03:39;7.53;;;5.03;;
54935;SDS011;40838;50.676;7.838;2023-04-24T05:06:08;6.38;;;4.20;;
54935;SDS011;40838;50.676;7.838;2023-04-24T05:08:38;7.43;;;4.47;;
54935;SDS011;40838;50.676;7.838;2023-04-24T05:11:08;7.63;;;5.05;;
54935;SDS011;40838;50.676;7.838;2023-04-24T05:13:38;7.25;;;4.65;;
54935;SDS011;40838;50.676;7.838;2023-04-24T05:16:26;7.70;;;4.95;;
54935;SDS011;40838;50.676;7.838;2023-04-24T05:18:54;7.63;;;5.13;;
54935;SDS011;40838;50.676;7.838;2023-04-24T05:21:26;6.70;;;4.75;;
54935;SDS011;40838;50.676;7.838;2023-04-24T05:23:54;6.80;;;4.75;;
54935;SDS011;40838;50.676;7.838;2023-04-24T05:26:47;6.55;;;4.57;;
54935;SDS011;40838;50.676;7.838;2023-04-24T05:29:18;8.75;;;4.13;;
54935;SDS011;40838;50.676;7.838;2023-04-24T05:31:45;6.63;;;4.40;;
54935;SDS011;40838;50.676;7.838;2023-04-24T05:34:12;6.38;;;4.35;;
54935;SDS011;40838;50.676;7.838;2023-04-24T05:36:42;7.57;;;4.53;;
54935;SDS011;40838;50.676;7.838;2023-04-24T05:39:09;19.25;;;4.20;;
54935;SDS011;40838;50.676;7.838;2023-04-24T05:41:36;6.53;;;4.03;;
54935;SDS011;40838;50.676;7.838;2023-04-24T05:44:03;7.55;;;3.90;;
54935;SDS011;40838;50.676;7.838;2023-04-24T05:46:31;7.13;;;4.43;;
54935;SDS011;40838;50.676;7.838;2023-04-24T05:48:58;6.00;;;4.40;;
54935;SDS011;40838;50.676;7.838;2023-04-24T05:51:25;5.68;;;4.20;;
54935;SDS011;40838;50.676;7.838;2023-04-24T05:53:52;7.18;;;4.68;;
54935;SDS011;40838;50.676;7.838;2023-04-24T05:56:19;10.65;;;5.75;;
54935;SDS011;40838;50.676;7.838;2023-04-24T05:58:48;7.80;;;4.88;;
54935;SDS011;40838;50.676;7.838;2023-04-24T06:01:15;7.50;;;5.05;;
54935;SDS011;40838;50.676;7.838;2023-04-24T06:03:48;6.93;;;5.05;;
54935;SDS011;40838;50.676;7.838;2023-04-24T06:06:15;11.18;;;5.07;;
54935;SDS011;40838;50.676;7.838;2023-04-24T06:08:42;7.70;;;4.85;;
54935;SDS011;40838;50.676;7.838;2023-04-24T06:11:10;9.25;;;5.40;;
54935;SDS011;40838;50.676;7.838;2023-04-24T06:13:37;9.75;;;5.20;;
54935;SDS011;40838;50.676;7.838;2023-04-24T06:16:34;7.72;;;5.00;;
54935;SDS011;40838;50.676;7.838;2023-04-24T06:19:09;6.45;;;5.00;;
54935;SDS011;40838;50.676;7.838;2023-04-24T06:21:36;6.90;;;4.72;;
54935;SDS011;40838;50.676;7.838;2023-04-24T06:24:04;9.65;;;4.68;;
54935;SDS011;40838;50.676;7.838;2023-04-24T06:26:31;6.18;;;4.75;;
54935;SDS011;40838;50.676;7.838;2023-04-24T06:28:59;10.18;;;5.60;;
54935;SDS011;40838;50.676;7.838;2023-04-24T06:31:25;9.43;;;5.15;;
54935;SDS011;40838;50.676;7.838;2023-04-24T06:33:53;13.73;;;5.85;;
54935;SDS011;40838;50.676;7.838;2023-04-24T06:36:21;8.45;;;5.35;;
54935;SDS011;40838;50.676;7.838;2023-04-24T06:38:48;8.73;;;5.40;;
54935;SDS011;40838;50.676;7.838;2023-04-24T06:41:15;8.25;;;4.38;;
54935;SDS011;40838;50.676;7.838;2023-04-24T06:43:41;13.05;;;5.03;;
54935;SDS011;40838;50.676;7.838;2023-04-24T06:46:08;9.65;;;5.72;;
54935;SDS011;40838;50.676;7.838;2023-04-24T06:48:35;8.93;;;5.68;;
54935;SDS011;40838;50.676;7.838;2023-04-24T06:51:02;8.15;;;4.85;;
54935;SDS011;40838;50.676;7.838;2023-04-24T06:53:30;9.07;;;5.68;;
54935;SDS011;40838;50.676;7.838;2023-04-24T06:55:57;7.72;;;5.18;;
54935;SDS011;40838;50.676;7.838;2023-04-24T06:58:24;11.80;;;5.70;;
54935;SDS011;40838;50.676;7.838;2023-04-24T07:00:51;9.50;;;6.10;;
54935;SDS011;40838;50.676;7.838;2023-04-24T07:03:18;8.85;;;5.95;;
54935;SDS011;40838;50.676;7.838;2023-04-24T07:05:45;8.50;;;6.10;;
54935;SDS011;40838;50.676;7.838;2023-04-24T07:08:12;9.27;;;6.07;;
54935;SDS011;40838;50.676;7.838;2023-04-24T07:10:43;10.40;;;6.82;;
54935;SDS011;40838;50.676;7.838;2023-04-24T07:13:10;9.63;;;5.22;;
54935;SDS011;40838;50.676;7.838;2023-04-24T07:15:37;7.05;;;5.40;;
54935;SDS011;40838;50.676;7.838;2023-04-24T07:18:05;10.77;;;5.95;;
54935;SDS011;40838;50.676;7.838;2023-04-24T07:20:31;11.10;;;6.10;;
54935;SDS011;40838;50.676;7.838;2023-04-24T07:22:59;6.90;;;5.72;;
54935;SDS011;40838;50.676;7.838;2023-04-24T07:25:26;8.32;;;5.30;;
54935;SDS011;40838;50.676;7.838;2023-04-24T07:27:54;8.10;;;5.82;;
54935;SDS011;40838;50.676;7.838;2023-04-24T07:30:21;11.23;;;5.80;;
54935;SDS011;40838;50.676;7.838;2023-04-24T07:32:47;8.50;;;6.00;;
54935;SDS011;40838;50.676;7.838;2023-04-24T07:35:14;9.48;;;5.85;;
54935;SDS011;40838;50.676;7.838;2023-04-24T07:37:41;9.48;;;6.40;;
54935;SDS011;40838;50.676;7.838;2023-04-24T07:40:11;8.00;;;5.90;;
54935;SDS011;40838;50.676;7.838;2023-04-24T07:42:38;10.80;;;6.85;;
54935;SDS011;40838;50.676;7.838;2023-04-24T07:45:06;8.30;;;5.72;;
54935;SDS011;40838;50.676;7.838;2023-04-24T07:47:33;11.00;;;6.03;;
54935;SDS011;40838;50.676;7.838;2023-04-24T07:50:01;6.75;;;5.43;;
54935;SDS011;40838;50.676;7.838;2023-04-24T07:52:28;8.38;;;5.70;;
54935;SDS011;40838;50.676;7.838;2023-04-24T07:54:55;9.65;;;5.85;;
54935;SDS011;40838;50.676;7.838;2023-04-24T07:57:23;6.28;;;5.03;;
54935;SDS011;40838;50.676;7.838;2023-04-24T07:59:50;11.48;;;6.50;;
54935;SDS011;40838;50.676;7.838;2023-04-24T08:02:19;12.43;;;6.95;;
54935;SDS011;40838;50.676;7.838;2023-04-24T08:04:46;10.23;;;5.93;;
54935;SDS011;40838;50.676;7.838;2023-04-24T08:07:13;10.20;;;6.10;;
54935;SDS011;40838;50.676;7.838;2023-04-24T08:09:41;10.85;;;7.53;;
54935;SDS011;40838;50.676;7.838;2023-04-24T08:12:08;8.50;;;6.15;;
54935;SDS011;40838;50.676;7.838;2023-04-24T08:14:37;9.52;;;6.82;;
54935;SDS011;40838;50.676;7.838;2023-04-24T08:17:04;12.50;;;6.97;;
54935;SDS011;40838;50.676;7.838;2023-04-24T08:22:01;8.90;;;6.53;;
54935;SDS011;40838;50.676;7.838;2023-04-24T08:24:29;12.38;;;6.30;;
54935;SDS011;40838;50.676;7.838;2023-04-24T08:26:56;10.07;;;6.68;;
54935;SDS011;40838;50.676;7.838;2023-04-24T08:29:23;10.07;;;7.10;;
54935;SDS011;40838;50.676;7.838;2023-04-24T08:31:51;10.27;;;7.10;;
54935;SDS011;40838;50.676;7.838;2023-04-24T08:34:19;10.70;;;6.80;;
54935;SDS011;40838;50.676;7.838;2023-04-24T08:36:47;7.55;;;5.68;;
54935;SDS011;40838;50.676;7.838;2023-04-24T08:39:15;9.85;;;7.00;;
54935;SDS011;40838;50.676;7.838;2023-04-24T08:41:43;8.55;;;6.15;;
54935;SDS011;40838;50.676;7.838;2023-04-24T08:44:14;8.93;;;6.32;;
54935;SDS011;40838;50.676;7.838;2023-04-24T08:46:42;9.90;;;6.80;;
54935;SDS011;40838;50.676;7.838;2023-04-24T08:49:10;10.73;;;7.40;;
54935;SDS011;40838;50.676;7.838;2023-04-24T08:51:38;10.77;;;5.90;;
54935;SDS011;40838;50.676;7.838;2023-04-24T08:54:07;11.07;;;7.00;;
54935;SDS011;40838;50.676;7.838;2023-04-24T08:56:35;11.43;;;7.93;;
54935;SDS011;40838;50.676;7.838;2023-04-24T08:59:04;6.82;;;5.70;;
54935;SDS011;40838;50.676;7.838;2023-04-24T09:01:32;10.90;;;6.82;;
54935;SDS011;40838;50.676;7.838;2023-04-24T09:04:00;7.57;;;5.93;;
54935;SDS011;40838;50.676;7.838;2023-04-24T09:06:29;7.82;;;5.20;;
54935;SDS011;40838;50.676;7.838;2023-04-24T09:08:57;9.65;;;5.85;;
54935;SDS011;40838;50.676;7.838;2023-04-24T09:11:28;6.53;;;4.55;;
54935;SDS011;40838;50.676;7.838;2023-04-24T09:13:56;9.10;;;4.43;;
54935;SDS011;40838;50.676;7.838;2023-04-24T09:16:24;5.20;;;2.90;;
54935;SDS011;40838;50.676;7.838;2023-04-24T09:18:52;5.05;;;3.22;;
54935;SDS011;40838;50.676;7.838;2023-04-24T09:21:20;3.58;;;1.38;;
54935;SDS011;40838;50.676;7.838;2023-04-24T09:23:53;2.17;;;1.40;;
54935;SDS011;40838;50.676;7.838;2023-04-24T09:26:24;1.30;;;1.20;;
54935;SDS011;40838;50.676;7.838;2023-04-24T09:28:53;1.52;;;1.17;;
54935;SDS011;40838;50.676;7.838;2023-04-24T09:31:20;1.90;;;1.15;;
54935;SDS011;40838;50.676;7.838;2023-04-24T09:33:53;2.20;;;0.75;;
54935;SDS011;40838;50.676;7.838;2023-04-24T09:36:26;1.55;;;1.20;;
54935;SDS011;40838;50.676;7.838;2023-04-24T09:38:57;1.48;;;1.05;;
54935;SDS011;40838;50.676;7.838;2023-04-24T09:41:24;4.22;;;0.98;;
54935;SDS011;40838;50.676;7.838;2023-04-24T09:43:54;1.35;;;1.08;;
54935;SDS011;40838;50.676;7.838;2023-04-24T09:46:29;3.25;;;1.10;;
54935;SDS011;40838;50.676;7.838;2023-04-24T09:48:56;1.42;;;1.20;;
54935;SDS011;40838;50.676;7.838;2023-04-24T09:51:33;3.13;;;1.00;;
54935;SDS011;40838;50.676;7.838;2023-04-24T09:54:02;1.10;;;1.00;;
54935;SDS011;40838;50.676;7.838;2023-04-24T09:56:29;3.70;;;1.20;;
54935;SDS011;40838;50.676;7.838;2023-04-24T09:59:05;0.80;;;0.80;;
54935;SDS011;40838;50.676;7.838;2023-04-24T10:01:32;2.05;;;1.25;;
54935;SDS011;40838;50.676;7.838;2023-04-24T10:04:00;1.75;;;1.27;;
54935;SDS011;40838;50.676;7.838;2023-04-24T10:06:31;3.63;;;1.13;;
54935;SDS011;40838;50.676;7.838;2023-04-24T10:08:59;1.98;;;1.30;;
54935;SDS011;40838;50.676;7.838;2023-04-24T10:11:27;2.75;;;1.65;;
54935;SDS011;40838;50.676;7.838;2023-04-24T10:13:54;5.10;;;1.40;;
54935;SDS011;40838;50.676;7.838;2023-04-24T10:16:24;2.97;;;1.40;;
54935;SDS011;40838;50.676;7.838;2023-04-24T10:18:52;3.22;;;1.52;;
54935;SDS011;40838;50.676;7.838;2023-04-24T10:21:19;2.25;;;1.80;;
54935;SDS011;40838;50.676;7.838;2023-04-24T10:23:48;2.28;;;1.65;;
54935;SDS011;40838;50.676;7.838;2023-04-24T10:26:16;4.97;;;1.95;;
54935;SDS011;40838;50.676;7.838;2023-04-24T10:28:45;2.63;;;2.15;;
54935;SDS011;40838;50.676;7.838;2023-04-24T10:31:13;2.00;;;1.60;;
54935;SDS011;40838;50.676;7.838;2023-04-24T10:33:42;1.98;;;1.60;;
54935;SDS011;40838;50.676;7.838;2023-04-24T10:36:10;1.30;;;1.20;;
54935;SDS011;40838;50.676;7.838;2023-04-24T10:38:39;3.42;;;1.58;;
54935;SDS011;40838;50.676;7.838;2023-04-24T10:41:08;3.55;;;2.47;;
54935;SDS011;40838;50.676;7.838;2023-04-24T10:43:41;3.00;;;1.30;;
54935;SDS011;40838;50.676;7.838;2023-04-24T10:46:08;3.28;;;1.77;;
54935;SDS011;40838;50.676;7.838;2023-04-24T10:48:42;3.15;;;1.60;;
54935;SDS011;40838;50.676;7.838;2023-04-24T10:51:14;1.45;;;1.35;;
54935;SDS011;40838;50.676;7.838;2023-04-24T10:53:41;2.53;;;1.60;;
54935;SDS011;40838;50.676;7.838;2023-04-24T10:56:08;3.20;;;2.30;;
54935;SDS011;40838;50.676;7.838;2023-04-24T10:58:36;5.32;;;1.80;;
54935;SDS011;40838;50.676;7.838;2023-04-24T11:01:05;2.20;;;1.40;;
54935;SDS011;40838;50.676;7.838;2023-04-24T11:03:33;3.22;;;2.13;;
54935;SDS011;40838;50.676;7.838;2023-04-24T11:06:03;2.58;;;1.83;;
54935;SDS011;40838;50.676;7.838;2023-04-24T11:08:32;2.33;;;1.95;;
54935;SDS011;40838;50.676;7.838;2023-04-24T11:11:04;3.42;;;2.00;;
54935;SDS011;40838;50.676;7.838;2023-04-24T11:16:29;4.00;;;1.83;;
54935;SDS011;40838;50.676;7.838;2023-04-24T11:19:03;4.00;;;2.22;;
54935;SDS011;40838;50.676;7.838;2023-04-24T11:21:41;1.80;;;1.47;;
54935;SDS011;40838;50.676;7.838;2023-04-24T11:24:25;1.40;;;1.30;;
54935;SDS011;40838;50.676;7.838;2023-04-24T11:26:56;3.45;;;1.60;;
54935;SDS011;40838;50.676;7.838;2023-04-24T11:32:26;2.88;;;1.75;;
54935;SDS011;40838;50.676;7.838;2023-04-24T11:34:54;4.22;;;1.75;;
54935;SDS011;40838;50.676;7.838;2023-04-24T11:37:24;4.10;;;2.40;;
54935;SDS011;40838;50.676;7.838;2023-04-24T11:39:53;2.38;;;1.85;;
54935;SDS011;40838;50.676;7.838;2023-04-24T11:42:21;4.68;;;2.35;;
54935;SDS011;40838;50.676;7.838;2023-04-24T11:44:49;2.63;;;2.30;;
54935;SDS011;40838;50.676;7.838;2023-04-24T11:47:16;4.38;;;3.03;;
54935;SDS011;40838;50.676;7.838;2023-04-24T11:49:42;5.55;;;3.08;;
54935;SDS011;40838;50.676;7.838;2023-04-24T11:52:09;6.32;;;3.35;;
54935;SDS011;40838;50.676;7.838;2023-04-24T11:54:38;9.10;;;3.60;;
54935;SDS011;40838;50.676;7.838;2023-04-24T11:57:13;7.50;;;3.47;;
54935;SDS011;40838;50.676;7.838;2023-04-24T11:59:40;6.47;;;3.63;;
54935;SDS011;40838;50.676;7.838;2023-04-24T12:02:07;10.20;;;5.57;;
54935;SDS011;40838;50.676;7.838;2023-04-24T12:04:40;5.00;;;3.67;;
54935;SDS011;40838;50.676;7.838;2023-04-24T12:07:07;9.82;;;4.45;;
54935;SDS011;40838;50.676;7.838;2023-04-24T12:09:45;8.20;;;4.10;;
54935;SDS011;40838;50.676;7.838;2023-04-24T12:12:13;6.85;;;4.05;;
54935;SDS011;40838;50.676;7.838;2023-04-24T12:14:47;6.43;;;3.75;;
54935;SDS011;40838;50.676;7.838;2023-04-24T12:17:15;7.82;;;4.68;;
54935;SDS011;40838;50.676;7.838;2023-04-24T12:19:46;9.50;;;4.20;;
54935;SDS011;40838;50.676;7.838;2023-04-24T12:22:13;12.70;;;5.43;;
54935;SDS011;40838;50.676;7.838;2023-04-24T12:24:57;8.75;;;4.63;;
54935;SDS011;40838;50.676;7.838;2023-04-24T12:27:26;9.52;;;5.20;;
54935;SDS011;40838;50.676;7.838;2023-04-24T12:29:55;10.45;;;5.82;;
54935;SDS011;40838;50.676;7.838;2023-04-24T12:32:26;12.38;;;6.38;;
54935;SDS011;40838;50.676;7.838;2023-04-24T12:34:55;10.27;;;6.03;;
54935;SDS011;40838;50.676;7.838;2023-04-24T12:37:23;10.48;;;4.80;;
54935;SDS011;40838;50.676;7.838;2023-04-24T12:39:59;11.05;;;5.78;;
54935;SDS011;40838;50.676;7.838;2023-04-24T12:42:31;9.48;;;4.57;;
54935;SDS011;40838;50.676;7.838;2023-04-24T12:44:58;12.75;;;4.88;;
54935;SDS011;40838;50.676;7.838;2023-04-24T12:47:27;12.88;;;5.57;;
54935;SDS011;40838;50.676;7.838;2023-04-24T12:49:54;7.95;;;5.07;;
54935;SDS011;40838;50.676;7.838;2023-04-24T12:52:21;16.83;;;6.57;;
54935;SDS011;40838;50.676;7.838;2023-04-24T12:54:49;11.35;;;5.45;;
54935;SDS011;40838;50.676;7.838;2023-04-24T12:57:17;11.32;;;5.50;;
54935;SDS011;40838;50.676;7.838;2023-04-24T12:59:44;11.10;;;5.75;;
54935;SDS011;40838;50.676;7.838;2023-04-24T13:02:11;17.42;;;6.25;;
54935;SDS011;40838;50.676;7.838;2023-04-24T13:04:38;10.00;;;6.43;;
54935;SDS011;40838;50.676;7.838;2023-04-24T13:07:05;10.70;;;6.25;;
54935;SDS011;40838;50.676;7.838;2023-04-24T13:09:34;9.95;;;6.05;;
54935;SDS011;40838;50.676;7.838;2023-04-24T13:12:01;13.50;;;6.68;;
54935;SDS011;40838;50.676;7.838;2023-04-24T13:14:32;14.05;;;7.40;;
54935;SDS011;40838;50.676;7.838;2023-04-24T13:16:59;13.02;;;6.63;;
54935;SDS011;40838;50.676;7.838;2023-04-24T13:19:26;13.05;;;5.50;;
54935;SDS011;40838;50.676;7.838;2023-04-24T13:21:54;12.23;;;6.75;;
54935;SDS011;40838;50.676;7.838;2023-04-24T13:24:22;13.02;;;5.95;;
54935;SDS011;40838;50.676;7.838;2023-04-24T13:26:50;13.95;;;6.65;;
54935;SDS011;40838;50.676;7.838;2023-04-24T13:29:17;6.18;;;4.45;;
54935;SDS011;40838;50.676;7.838;2023-04-24T13:31:45;7.38;;;4.80;;
54935;SDS011;40838;50.676;7.838;2023-04-24T13:34:12;8.30;;;4.22;;
54935;SDS011;40838;50.676;7.838;2023-04-24T13:36:39;8.70;;;4.43;;
54935;SDS011;40838;50.676;7.838;2023-04-24T13:39:06;7.05;;;4.70;;
54935;SDS011;40838;50.676;7.838;2023-04-24T13:41:33;7.38;;;4.30;;
54935;SDS011;40838;50.676;7.838;2023-04-24T13:44:00;8.65;;;4.57;;
54935;SDS011;40838;50.676;7.838;2023-04-24T13:46:27;10.45;;;4.53;;
54935;SDS011;40838;50.676;7.838;2023-04-24T13:49:04;10.18;;;5.03;;
54935;SDS011;40838;50.676;7.838;2023-04-24T13:51:31;10.55;;;5.03;;
54935;SDS011;40838;50.676;7.838;2023-04-24T13:53:59;11.45;;;5.50;;
54935;SDS011;40838;50.676;7.838;2023-04-24T13:56:26;13.07;;;5.72;;
54935;SDS011;40838;50.676;7.838;2023-04-24T13:58:52;12.75;;;5.47;;
54935;SDS011;40838;50.676;7.838;2023-04-24T14:01:20;9.90;;;4.75;;
54935;SDS011;40838;50.676;7.838;2023-04-24T14:03:49;11.30;;;6.25;;
54935;SDS011;40838;50.676;7.838;2023-04-24T14:06:17;10.70;;;5.75;;
54935;SDS011;40838;50.676;7.838;2023-04-24T14:08:45;11.77;;;5.97;;
54935;SDS011;40838;50.676;7.838;2023-04-24T14:11:12;9.23;;;5.97;;
54935;SDS011;40838;50.676;7.838;2023-04-24T14:13:39;12.15;;;6.70;;
54935;SDS011;40838;50.676;7.838;2023-04-24T14:16:07;12.57;;;7.25;;
54935;SDS011;40838;50.676;7.838;2023-04-24T14:18:35;8.60;;;5.20;;
54935;SDS011;40838;50.676;7.838;2023-04-24T14:21:01;11.60;;;5.50;;
54935;SDS011;40838;50.676;7.838;2023-04-24T14:23:30;11.05;;;5.55;;
54935;SDS011;40838;50.676;7.838;2023-04-24T14:25:58;11.10;;;5.45;;
54935;SDS011;40838;50.676;7.838;2023-04-24T14:28:25;8.50;;;4.85;;
54935;SDS011;40838;50.676;7.838;2023-04-24T14:30:52;8.73;;;5.28;;
54935;SDS011;40838;50.676;7.838;2023-04-24T14:33:19;9.05;;;4.78;;
54935;SDS011;40838;50.676;7.838;2023-04-24T14:35:46;11.32;;;5.80;;
54935;SDS011;40838;50.676;7.838;2023-04-24T14:38:13;8.45;;;5.03;;
54935;SDS011;40838;50.676;7.838;2023-04-24T14:40:42;11.50;;;5.07;;
54935;SDS011;40838;50.676;7.838;2023-04-24T14:43:09;9.18;;;4.32;;
54935;SDS011;40838;50.676;7.838;2023-04-24T14:45:36;13.45;;;6.03;;
54935;SDS011;40838;50.676;7.838;2023-04-24T14:48:06;11.27;;;5.28;;
54935;SDS011;40838;50.676;7.838;2023-04-24T14:50:33;11.40;;;5.28;;
54935;SDS011;40838;50.676;7.838;2023-04-24T14:53:00;14.90;;;5.57;;
54935;SDS011;40838;50.676;7.838;2023-04-24T14:55:27;13.15;;;5.65;;
54935;SDS011;40838;50.676;7.838;2023-04-24T14:57:55;46.30;;;28.42;;
54935;SDS011;40838;50.676;7.838;2023-04-24T15:00:22;32.40;;;19.73;;
54935;SDS011;40838;50.676;7.838;2023-04-24T15:02:49;38.75;;;24.25;;